New Albany, IN (47150)

7:02 PM EDT on July 30, 2015 (GMT -0400)
Brent Heights | | Change Station
CLOSE
Current Station
Personal Weather Station
Location: New Albany, IN
Elevation: 465 ft
Nearby Weather Stations

Elev 465 ft 38.31 °N, 85.83 °W | Updated 13 minutes ago

Clear
Clear
86.5 °F
Feels Like 85 °F
N
1.0
Wind Variable Wind from NE
Gusts 6.0 mph

Today
High -- | Low -- °F
--% Chance of Precip.
Yesterday
High -- | Low -- °F
Precip. -- in
6:43 AM 8:55 PM
Full, 100% visible
Pressure 30.03 in
Visibility 10.0 miles
Clouds Clear
Heat Index 85 °F
Dew Point 57 °F
Humidity 36%
Rainfall 0.00 in
Snow Depth Not available.
UV 1.7 out of 12
Pollen 5.50 out of 12
Air Quality Not available.
Flu Activity Not available.
METAR KLOU 302253Z 35009KT 10SM CLR 30/13 A3005 RMK AO2 SLP169 T03000128

More Conditions Fewer Conditions

Pressure 30.03 in
Visibility 10.0 miles
Clouds Clear
Heat Index 85 °F
Dew Point 57 °F
Humidity 36%
Rainfall 0.00 in
Snow Depth Not available.
UV 1.7 out of 12
Pollen 5.50 out of 12
Air Quality Not available.
Flu Activity Not available.
METAR KLOU 302253Z 35009KT 10SM CLR 30/13 A3005 RMK AO2 SLP169 T03000128

More Conditions Fewer Conditions

10-Day Weather Forecast

×

Almanac

Astronomy

Jul. 30, 2015 Rise Set
Actual Time
Civil Twilight
Nautical Twilight
Astronomical Twilight
Moon
Length of Visible Light
Length of Day
Tomorrow will be .
, % of the Moon is Illuminated

Today's Extremes

State Highs State Lows

Community

WunderPhotos

Upload Photos

1,842,532 photos uploaded!

WunderBlogs® & News

Nearby

Air Quality

  Air Quality AQ Index Pollutant
Not available.

Snow Depth

Station Depth Elevation

Earthquake Activity

City Distance Mag. Time & Date
Minimum magnitude displayed is 2.5.

Coastal Water Temperatures

Place Temperature

Stations

Nearby Weather Stations

Station Location Temp. Windchill Dew Point Humidity Wind Precip. Elev Updated Type